Time;durP1;ratioP1;P1;durP2;ratioP2;P2;SDS_P1;SDS_P2;PMS_P1;PMS_P2;Temp;Humidity;BMP_temperature;BMP_pressure;BME280_temperature;BME280_humidity;BME280_pressure;Samples;Min_cycle;Max_cycle;Signal;HPM_P1;HPM_P2
2023/05/09 00:00:55;;;;;;;17.00;13.33;;;17.10;78.30;;;;;;5066943;28;20481;-67
2023/05/09 00:03:29;;;;;;;16.60;13.83;;;17.10;78.30;;;;;;5066887;28;20457;-67
2023/05/09 00:06:12;;;;;;;17.83;13.70;;;17.10;78.20;;;;;;5064796;28;20564;-67
2023/05/09 00:08:51;;;;;;;18.50;14.70;;;17.00;78.20;;;;;;5066297;28;20508;-67
2023/05/09 00:11:22;;;;;;;21.80;14.27;;;17.00;78.10;;;;;;5070012;28;21009;-67
2023/05/09 00:14:00;;;;;;;16.83;13.87;;;17.00;78.10;;;;;;5070924;28;20449;-67
2023/05/09 00:16:36;;;;;;;20.97;15.73;;;17.00;78.10;;;;;;5068363;28;20502;-67
2023/05/09 00:19:11;;;;;;;17.47;14.10;;;17.00;78.00;;;;;;5069847;28;20448;-68
2023/05/09 00:21:42;;;;;;;18.10;14.17;;;17.00;78.00;;;;;;5065987;28;20468;-68
2023/05/09 00:24:21;;;;;;;17.57;13.70;;;17.00;77.90;;;;;;5064882;28;20786;-66
2023/05/09 00:26:58;;;;;;;20.87;14.93;;;17.00;77.80;;;;;;5068651;28;20521;-66
2023/05/09 00:29:29;;;;;;;25.20;14.47;;;17.00;77.80;;;;;;5071094;28;20549;-66
2023/05/09 00:32:01;;;;;;;19.10;14.93;;;17.10;77.80;;;;;;5065077;28;20473;-66
2023/05/09 00:34:34;;;;;;;19.37;14.17;;;17.10;77.70;;;;;;5068089;28;20454;-66
2023/05/09 00:37:08;;;;;;;23.43;15.20;;;17.10;77.70;;;;;;5070223;28;20839;-67
2023/05/09 00:39:42;;;;;;;26.90;15.63;;;17.10;77.70;;;;;;5069800;28;20452;-66
2023/05/09 00:42:14;;;;;;;17.50;14.83;;;17.10;77.60;;;;;;5069569;28;20480;-67
2023/05/09 00:44:46;;;;;;;19.03;15.10;;;17.10;77.60;;;;;;5069655;28;20464;-66
2023/05/09 00:47:20;;;;;;;19.97;14.80;;;17.10;77.50;;;;;;5070658;28;20453;-66
2023/05/09 00:49:53;;;;;;;21.73;14.90;;;17.10;77.50;;;;;;5067777;28;20805;-66
2023/05/09 00:52:25;;;;;;;22.33;15.20;;;17.10;77.50;;;;;;5067200;28;20889;-66
2023/05/09 00:55:09;;;;;;;17.53;14.13;;;17.10;77.40;;;;;;5070617;28;20485;-66
2023/05/09 00:57:45;;;;;;;22.13;15.47;;;17.00;77.40;;;;;;5063057;28;20454;-66
2023/05/09 01:00:25;;;;;;;20.30;15.43;;;17.00;77.40;;;;;;5083135;28;20668;-66
2023/05/09 01:02:58;;;;;;;17.10;13.33;;;17.00;77.40;;;;;;5082098;28;20466;-66
2023/05/09 01:05:40;;;;;;;19.03;14.67;;;17.00;77.40;;;;;;5063499;28;20480;-66
2023/05/09 01:08:21;;;;;;;19.47;15.57;;;17.00;77.40;;;;;;5068714;28;20518;-66
2023/05/09 01:11:03;;;;;;;19.10;14.13;;;17.00;77.40;;;;;;5066758;28;20483;-66
2023/05/09 01:13:43;;;;;;;18.50;13.77;;;17.00;77.50;;;;;;5062094;28;20454;-66
2023/05/09 01:16:25;;;;;;;20.30;14.23;;;17.00;77.50;;;;;;5067998;28;20549;-67
2023/05/09 01:19:17;;;;;;;19.30;13.23;;;17.10;77.50;;;;;;5060178;28;20457;-66
2023/05/09 01:21:55;;;;;;;23.93;14.70;;;17.10;77.50;;;;;;5064327;28;20561;-67
2023/05/09 01:24:40;;;;;;;18.90;14.20;;;17.00;77.40;;;;;;5067504;28;20470;-67
2023/05/09 01:27:29;;;;;;;17.30;13.63;;;17.00;77.40;;;;;;5066871;28;21057;-67
2023/05/09 01:30:21;;;;;;;20.47;14.70;;;17.00;77.50;;;;;;5068400;28;20478;-68
2023/05/09 01:32:59;;;;;;;19.60;14.30;;;16.90;77.50;;;;;;5065257;28;20446;-67
2023/05/09 01:35:35;;;;;;;19.47;14.57;;;16.90;77.50;;;;;;5067963;28;20545;-67
2023/05/09 01:38:17;;;;;;;22.37;15.20;;;16.80;77.60;;;;;;5064257;28;20465;-67
2023/05/09 01:40:54;;;;;;;22.30;15.83;;;16.80;77.60;;;;;;5066788;28;20464;-67
2023/05/09 01:43:28;;;;;;;18.30;14.53;;;16.70;77.70;;;;;;5067030;28;21124;-67
2023/05/09 01:46:14;;;;;;;20.40;15.53;;;16.60;77.80;;;;;;5062784;28;20941;-67
2023/05/09 01:48:45;;;;;;;21.27;16.20;;;16.50;78.00;;;;;;5064174;28;20476;-67
2023/05/09 01:51:19;;;;;;;23.47;16.70;;;16.50;78.00;;;;;;5064810;28;20453;-68
2023/05/09 01:53:54;;;;;;;19.67;16.20;;;16.40;78.20;;;;;;5068259;28;20450;-67
2023/05/09 01:56:28;;;;;;;23.13;15.90;;;16.40;78.30;;;;;;5068706;28;20459;-67
2023/05/09 01:59:15;;;;;;;25.23;18.20;;;16.40;78.40;;;;;;5065618;28;20465;-67
2023/05/09 02:01:57;;;;;;;24.87;16.57;;;16.40;78.40;;;;;;5063984;28;20491;-67
2023/05/09 02:04:32;;;;;;;21.60;16.50;;;16.40;78.50;;;;;;5068303;28;20460;-67
2023/05/09 02:07:05;;;;;;;20.93;16.63;;;16.40;78.50;;;;;;5067685;28;20484;-67
2023/05/09 02:09:38;;;;;;;21.70;16.13;;;16.40;78.50;;;;;;5069216;28;20457;-67
2023/05/09 02:12:18;;;;;;;20.00;15.43;;;16.40;78.60;;;;;;5068320;28;20471;-67
2023/05/09 02:14:59;;;;;;;29.23;17.37;;;16.30;78.60;;;;;;5066294;28;20804;-67
2023/05/09 02:17:47;;;;;;;21.17;16.27;;;16.30;78.70;;;;;;5067977;28;20514;-67
2023/05/09 02:20:26;;;;;;;21.07;16.40;;;16.30;78.70;;;;;;5067057;28;20469;-67
2023/05/09 02:22:59;;;;;;;20.57;16.83;;;16.30;78.70;;;;;;5068722;28;20581;-66
2023/05/09 02:25:33;;;;;;;20.20;16.33;;;16.30;78.80;;;;;;5070345;28;20472;-66
2023/05/09 02:28:09;;;;;;;21.90;16.40;;;16.30;78.90;;;;;;5068000;28;20460;-67
2023/05/09 02:30:47;;;;;;;22.20;15.83;;;16.30;78.90;;;;;;5068538;28;20476;-67
2023/05/09 02:33:19;;;;;;;22.53;16.00;;;16.40;78.90;;;;;;5068944;28;20458;-67
2023/05/09 02:35:58;;;;;;;23.63;17.73;;;16.40;78.90;;;;;;5066373;28;20466;-67
2023/05/09 02:38:32;;;;;;;26.43;18.73;;;16.50;78.90;;;;;;5067355;28;20456;-67
2023/05/09 02:41:12;;;;;;;23.03;16.67;;;16.50;78.80;;;;;;5069546;28;20457;-68
2023/05/09 02:43:46;;;;;;;20.73;16.63;;;16.50;78.80;;;;;;5067163;28;20788;-66
2023/05/09 02:46:20;;;;;;;25.07;17.40;;;16.60;78.80;;;;;;5070146;28;20487;-67
2023/05/09 02:48:56;;;;;;;22.43;17.17;;;16.60;78.80;;;;;;5067120;28;20469;-68
2023/05/09 02:51:30;;;;;;;33.47;22.47;;;16.60;78.70;;;;;;5062154;28;20460;-68
2023/05/09 02:54:01;;;;;;;39.60;24.93;;;16.50;78.60;;;;;;5069323;28;20507;-68
2023/05/09 02:56:32;;;;;;;32.40;21.73;;;16.50;78.50;;;;;;5069303;28;20460;-67
2023/05/09 02:59:04;;;;;;;29.20;21.27;;;16.40;78.60;;;;;;5066940;28;20464;-68
2023/05/09 03:01:41;;;;;;;34.57;21.70;;;16.30;78.70;;;;;;5065814;28;21005;-66
2023/05/09 03:04:29;;;;;;;28.53;20.50;;;16.20;78.80;;;;;;5069509;28;20518;-66
2023/05/09 03:07:00;;;;;;;28.57;19.33;;;16.10;78.90;;;;;;5061868;28;20874;-65
2023/05/09 03:09:35;;;;;;;31.40;21.53;;;16.00;79.00;;;;;;5066867;28;20467;-68
2023/05/09 03:12:12;;;;;;;24.70;17.77;;;16.10;79.30;;;;;;5067920;28;20464;-66
2023/05/09 03:14:42;;;;;;;31.00;20.40;;;16.10;79.30;;;;;;5070025;28;20758;-67
2023/05/09 03:17:16;;;;;;;26.80;20.30;;;16.10;79.30;;;;;;5066738;28;20507;-66
2023/05/09 03:19:53;;;;;;;31.20;21.53;;;16.20;79.10;;;;;;5065761;28;20547;-66
2023/05/09 03:22:31;;;;;;;36.50;22.53;;;16.20;79.10;;;;;;5063689;28;20448;-66
2023/05/09 03:25:14;;;;;;;28.43;20.90;;;16.20;79.00;;;;;;5066862;28;21076;-66
2023/05/09 03:27:48;;;;;;;30.80;20.20;;;16.10;79.00;;;;;;5065095;28;20487;-66
2023/05/09 03:30:20;;;;;;;32.40;22.47;;;16.10;79.10;;;;;;5068018;28;20601;-66
2023/05/09 03:32:55;;;;;;;40.23;22.40;;;16.10;79.30;;;;;;5067211;28;20476;-66
2023/05/09 03:35:30;;;;;;;24.20;18.00;;;16.10;79.30;;;;;;5063832;28;20456;-67
2023/05/09 03:38:04;;;;;;;32.43;21.67;;;16.20;79.30;;;;;;5066300;28;20459;-67
2023/05/09 03:40:38;;;;;;;27.20;18.67;;;16.10;79.00;;;;;;5069059;28;20457;-66
2023/05/09 03:43:12;;;;;;;31.30;20.83;;;16.00;79.10;;;;;;5068090;28;20457;-66
2023/05/09 03:45:51;;;;;;;27.00;20.30;;;16.00;79.30;;;;;;5071898;28;20460;-68
2023/05/09 03:48:20;;;;;;;25.83;18.63;;;16.10;79.30;;;;;;5070242;28;20473;-66
2023/05/09 03:50:58;;;;;;;25.17;19.10;;;16.10;79.30;;;;;;5071739;28;20460;-66
2023/05/09 03:53:39;;;;;;;23.63;19.20;;;16.10;79.10;;;;;;5070017;28;20463;-66
2023/05/09 03:56:11;;;;;;;24.97;18.93;;;16.00;79.10;;;;;;5079181;28;20495;-68
2023/05/09 03:58:57;;;;;;;23.70;18.37;;;16.00;79.10;;;;;;5067830;28;20457;-67
2023/05/09 04:01:33;;;;;;;24.03;19.17;;;16.00;79.00;;;;;;5065919;28;20476;-66
2023/05/09 04:04:06;;;;;;;28.50;19.17;;;16.00;78.90;;;;;;5067276;28;20486;-66
2023/05/09 04:06:55;;;;;;;29.23;18.73;;;16.00;78.90;;;;;;5068177;28;20461;-66
2023/05/09 04:09:29;;;;;;;27.73;18.13;;;16.10;78.60;;;;;;5081183;28;20961;-66
2023/05/09 04:12:03;;;;;;;27.00;18.97;;;16.10;78.60;;;;;;5069220;28;20712;-66
2023/05/09 04:14:42;;;;;;;26.40;19.33;;;16.10;78.60;;;;;;5067394;28;20501;-66
2023/05/09 04:17:21;;;;;;;22.50;17.77;;;16.10;78.60;;;;;;5071252;28;20457;-66
2023/05/09 04:19:52;;;;;;;24.80;18.77;;;16.10;78.40;;;;;;5068500;28;20468;-68
2023/05/09 04:22:35;;;;;;;23.87;17.00;;;16.20;78.30;;;;;;5065690;28;20462;-68
2023/05/09 04:25:11;;;;;;;20.73;16.33;;;16.20;78.20;;;;;;5070247;28;20517;-66
2023/05/09 04:27:45;;;;;;;22.07;17.53;;;16.30;78.30;;;;;;5063106;28;20502;-67
2023/05/09 04:30:18;;;;;;;22.57;17.10;;;16.30;78.10;;;;;;5064992;28;20560;-67
2023/05/09 04:32:48;;;;;;;22.80;17.50;;;16.40;77.90;;;;;;5067540;28;20461;-67
2023/05/09 04:35:23;;;;;;;21.97;17.00;;;16.40;77.80;;;;;;5066275;28;20941;-67
2023/05/09 04:38:10;;;;;;;22.90;16.63;;;16.40;77.80;;;;;;5071243;28;20452;-67
2023/05/09 04:40:40;;;;;;;23.90;17.07;;;16.40;77.50;;;;;;5080075;28;20458;-67
2023/05/09 04:43:19;;;;;;;22.70;16.33;;;16.40;77.60;;;;;;5061312;28;20506;-67
2023/05/09 04:46:01;;;;;;;22.47;15.07;;;16.40;77.40;;;;;;5060789;28;20539;-67
2023/05/09 04:48:38;;;;;;;23.00;17.30;;;16.50;77.30;;;;;;5066719;28;20986;-67
2023/05/09 04:51:09;;;;;;;22.07;16.73;;;16.50;77.10;;;;;;5070351;28;20486;-67
2023/05/09 04:53:56;;;;;;;27.50;18.07;;;16.50;76.90;;;;;;5069569;28;20453;-67
2023/05/09 04:56:40;;;;;;;25.00;17.77;;;16.50;76.70;;;;;;5064660;28;20468;-66
2023/05/09 04:59:12;;;;;;;24.57;16.67;;;16.50;76.40;;;;;;5073775;28;20561;-66
2023/05/09 05:01:47;;;;;;;20.57;16.93;;;16.50;76.40;;;;;;5065184;28;20486;-66
2023/05/09 05:04:17;;;;;;;22.43;16.43;;;16.40;76.40;;;;;;5073786;28;20557;-66
2023/05/09 05:06:47;;;;;;;20.80;15.97;;;16.40;76.30;;;;;;5070347;28;20569;-66
2023/05/09 05:09:41;;;;;;;23.80;16.17;;;16.40;76.30;;;;;;5070852;28;20457;-66
2023/05/09 05:12:14;;;;;;;22.20;17.37;;;16.50;76.10;;;;;;5069261;28;20461;-67
2023/05/09 05:14:48;;;;;;;22.13;16.40;;;16.50;76.00;;;;;;5072420;28;20492;-66
2023/05/09 05:17:21;;;;;;;20.10;15.77;;;16.50;75.80;;;;;;5072862;28;20461;-66
2023/05/09 05:20:05;;;;;;;22.57;15.97;;;16.50;75.60;;;;;;5069795;28;20480;-67
2023/05/09 05:22:45;;;;;;;20.87;16.10;;;16.50;75.40;;;;;;5069184;28;20472;-66
2023/05/09 05:25:21;;;;;;;20.77;14.93;;;16.50;75.30;;;;;;5068948;28;20461;-66
2023/05/09 05:27:54;;;;;;;18.10;14.70;;;16.50;75.20;;;;;;5071902;28;20809;-66
2023/05/09 05:30:25;;;;;;;16.83;13.30;;;16.60;75.40;;;;;;5071073;28;20473;-67
2023/05/09 05:32:54;;;;;;;16.87;13.90;;;17.00;76.50;;;;;;5066447;28;20457;-66
2023/05/09 05:35:30;;;;;;;20.60;14.10;;;17.80;76.80;;;;;;5060879;28;20527;-67
2023/05/09 05:38:02;;;;;;;19.37;15.23;;;19.10;75.40;;;;;;5063950;28;20469;-67
2023/05/09 05:40:40;;;;;;;19.93;15.50;;;20.30;73.60;;;;;;5070387;28;20467;-67
2023/05/09 05:43:14;;;;;;;19.83;15.17;;;21.10;71.00;;;;;;5071046;28;20947;-67
2023/05/09 05:45:48;;;;;;;20.00;14.37;;;21.80;69.80;;;;;;5068197;28;20453;-67
2023/05/09 05:48:23;;;;;;;18.10;14.30;;;22.20;68.80;;;;;;5071420;28;20531;-67
2023/05/09 05:50:57;;;;;;;21.13;15.00;;;22.70;67.30;;;;;;5070411;28;21029;-67
2023/05/09 05:53:41;;;;;;;18.00;14.60;;;23.20;66.00;;;;;;5068478;28;20453;-67
2023/05/09 05:56:18;;;;;;;20.23;14.93;;;23.80;65.40;;;;;;5069380;28;20875;-67
2023/05/09 05:58:50;;;;;;;18.27;15.13;;;24.50;64.70;;;;;;5066842;28;20461;-67
2023/05/09 06:01:22;;;;;;;21.60;17.00;;;25.30;63.40;;;;;;5076931;28;20474;-67
2023/05/09 06:03:57;;;;;;;18.17;15.13;;;26.00;61.90;;;;;;5068625;28;20515;-67
2023/05/09 06:06:35;;;;;;;36.20;25.63;;;26.40;60.30;;;;;;5068485;28;20465;-67
2023/05/09 06:09:11;;;;;;;19.17;14.60;;;25.90;58.30;;;;;;5070703;28;20473;-67
2023/05/09 06:11:57;;;;;;;17.17;14.10;;;24.80;58.40;;;;;;5071498;28;20462;-67
2023/05/09 06:14:31;;;;;;;22.00;14.10;;;23.40;58.60;;;;;;5067264;28;20472;-67
2023/05/09 06:17:03;;;;;;;18.93;13.57;;;22.10;59.80;;;;;;5071616;28;20462;-67
2023/05/09 06:19:46;;;;;;;19.50;14.37;;;21.20;60.60;;;;;;5069683;28;20984;-67
2023/05/09 06:22:18;;;;;;;22.00;16.13;;;20.40;61.50;;;;;;5069468;28;20475;-67
2023/05/09 06:24:53;;;;;;;19.00;15.43;;;19.90;62.30;;;;;;5067161;28;20464;-67
2023/05/09 06:27:28;;;;;;;18.20;15.30;;;19.50;62.90;;;;;;5068187;28;20453;-67
2023/05/09 06:29:59;;;;;;;19.00;15.50;;;19.20;63.50;;;;;;5070471;28;20481;-67
2023/05/09 06:32:54;;;;;;;19.97;13.63;;;18.90;63.80;;;;;;5080428;28;20465;-67
2023/05/09 06:35:29;;;;;;;21.83;15.47;;;18.80;64.20;;;;;;5069521;28;20453;-67
2023/05/09 06:38:05;;;;;;;17.83;14.13;;;18.70;64.50;;;;;;5070765;28;20456;-66
2023/05/09 06:43:28;;;;;;;19.37;15.07;;;18.50;65.00;;;;;;5071015;28;20458;-66
2023/05/09 06:45:58;;;;;;;20.07;14.90;;;18.50;65.30;;;;;;5068989;28;20470;-67
2023/05/09 06:48:28;;;;;;;20.70;14.10;;;18.50;65.40;;;;;;5069673;28;20482;-67
2023/05/09 06:51:04;;;;;;;20.73;14.90;;;18.40;65.40;;;;;;5071886;28;20550;-67
2023/05/09 06:53:36;;;;;;;22.53;15.30;;;18.40;65.70;;;;;;5066078;28;20462;-67
2023/05/09 06:56:18;;;;;;;17.87;13.60;;;18.40;66.00;;;;;;5069662;28;21021;-67
2023/05/09 06:58:57;;;;;;;22.43;15.20;;;18.40;66.00;;;;;;5068626;28;21183;-67
2023/05/09 07:01:32;;;;;;;19.77;14.97;;;18.40;66.00;;;;;;5067640;28;20869;-66
2023/05/09 07:04:05;;;;;;;20.07;15.87;;;18.40;66.10;;;;;;5067447;28;20442;-66
2023/05/09 07:06:35;;;;;;;21.10;16.73;;;18.30;66.10;;;;;;5065766;28;20451;-66
2023/05/09 07:09:08;;;;;;;17.80;14.67;;;18.30;66.10;;;;;;5068912;28;20504;-67
2023/05/09 07:11:42;;;;;;;20.67;15.23;;;18.20;66.20;;;;;;5065844;28;20490;-66
2023/05/09 07:14:18;;;;;;;19.80;15.13;;;18.20;66.30;;;;;;5068480;28;20930;-67
2023/05/09 07:16:57;;;;;;;18.93;14.23;;;18.20;66.30;;;;;;5067085;28;20491;-67
2023/05/09 07:19:49;;;;;;;20.53;14.57;;;18.30;66.40;;;;;;5066715;28;20455;-66
2023/05/09 07:22:23;;;;;;;23.33;14.73;;;18.30;66.50;;;;;;5065864;28;20452;-66
2023/05/09 07:24:58;;;;;;;24.10;14.90;;;18.40;66.40;;;;;;5067748;28;20456;-66
2023/05/09 07:27:36;;;;;;;18.87;14.27;;;18.40;66.40;;;;;;5068311;28;20584;-66
2023/05/09 07:30:12;;;;;;;19.73;14.67;;;18.40;66.40;;;;;;5065314;28;20859;-67
2023/05/09 07:32:42;;;;;;;17.50;14.40;;;18.40;66.20;;;;;;5063980;28;20454;-66
2023/05/09 07:35:23;;;;;;;17.27;12.40;;;18.40;66.20;;;;;;5066897;28;20601;-66
2023/05/09 07:38:05;;;;;;;17.97;13.23;;;18.40;66.30;;;;;;5066010;28;20449;-67
2023/05/09 07:40:37;;;;;;;16.90;12.40;;;18.40;66.30;;;;;;5065247;28;20873;-67
2023/05/09 07:43:14;;;;;;;17.50;12.77;;;18.40;66.30;;;;;;5065768;28;20452;-66
2023/05/09 07:45:54;;;;;;;17.53;13.40;;;18.50;66.10;;;;;;5064570;28;20459;-67
2023/05/09 07:48:26;;;;;;;16.80;12.57;;;18.50;65.80;;;;;;5065209;28;20545;-67
2023/05/09 07:51:02;;;;;;;18.17;12.60;;;18.50;65.80;;;;;;5065153;28;21042;-67
2023/05/09 07:53:35;;;;;;;14.53;11.43;;;18.60;65.70;;;;;;5065461;28;20444;-67
2023/05/09 07:56:13;;;;;;;17.10;12.30;;;18.70;65.80;;;;;;5069035;28;20519;-67
2023/05/09 07:58:46;;;;;;;16.87;12.10;;;18.80;65.60;;;;;;5065949;28;20436;-66
2023/05/09 08:01:17;;;;;;;13.50;10.67;;;18.80;64.80;;;;;;5067795;28;20964;-66
2023/05/09 08:03:49;;;;;;;13.97;10.20;;;18.70;64.50;;;;;;5066071;28;21196;-67
2023/05/09 08:06:29;;;;;;;14.53;11.23;;;18.70;64.70;;;;;;5067145;28;20452;-66
2023/05/09 08:09:01;;;;;;;13.10;10.30;;;18.80;64.60;;;;;;5068413;28;20484;-66
2023/05/09 08:11:36;;;;;;;13.33;10.43;;;18.80;64.60;;;;;;5063921;28;20504;-67
2023/05/09 08:14:12;;;;;;;16.50;10.83;;;18.90;64.70;;;;;;5068681;28;20462;-67
2023/05/09 08:16:58;;;;;;;12.33;9.17;;;18.90;64.70;;;;;;5066346;28;20470;-67
2023/05/09 08:19:29;;;;;;;12.60;10.67;;;19.00;64.50;;;;;;5066677;28;20931;-66
2023/05/09 08:22:02;;;;;;;15.07;11.30;;;19.00;64.40;;;;;;5067578;28;20460;-66
2023/05/09 08:24:42;;;;;;;13.97;10.37;;;19.10;64.20;;;;;;5066185;28;20464;-67
2023/05/09 08:27:15;;;;;;;13.67;9.87;;;19.10;64.20;;;;;;5067850;28;20615;-66
2023/05/09 08:29:45;;;;;;;15.83;11.20;;;19.10;64.30;;;;;;5066473;28;20479;-67
2023/05/09 08:32:30;;;;;;;12.70;9.53;;;19.20;64.40;;;;;;5069937;28;20805;-67
2023/05/09 08:35:01;;;;;;;14.60;10.80;;;19.30;64.30;;;;;;5069725;28;20454;-66
2023/05/09 08:37:38;;;;;;;16.30;11.30;;;19.30;64.40;;;;;;5067176;28;20460;-66
2023/05/09 08:40:10;;;;;;;14.90;10.80;;;19.40;64.20;;;;;;5069717;28;20475;-67
2023/05/09 08:42:45;;;;;;;15.90;11.70;;;19.40;64.10;;;;;;5066501;28;20562;-66
2023/05/09 08:45:22;;;;;;;12.80;10.50;;;19.30;63.90;;;;;;5067150;28;20449;-67
2023/05/09 08:47:58;;;;;;;18.47;10.87;;;19.30;64.10;;;;;;5067499;28;20449;-66
2023/05/09 08:50:30;;;;;;;18.93;10.90;;;19.30;64.20;;;;;;5069918;28;21024;-67
2023/05/09 08:53:02;;;;;;;11.93;10.07;;;19.30;64.20;;;;;;5067860;28;20516;-66
2023/05/09 08:55:32;;;;;;;13.80;9.40;;;19.40;64.20;;;;;;5071609;28;20484;-66
2023/05/09 09:00:50;;;;;;;13.33;9.73;;;19.40;64.30;;;;;;5064385;28;21044;-67
2023/05/09 09:03:25;;;;;;;12.10;9.30;;;19.40;64.20;;;;;;5067204;28;20457;-66
2023/05/09 09:05:59;;;;;;;14.20;9.80;;;19.50;64.20;;;;;;5066929;28;20495;-66
2023/05/09 09:08:37;;;;;;;12.93;8.80;;;19.50;63.90;;;;;;5068704;28;20453;-67
2023/05/09 09:11:06;;;;;;;12.90;8.07;;;19.50;64.10;;;;;;5065132;28;20488;-66
2023/05/09 09:13:45;;;;;;;9.80;7.80;;;19.50;64.20;;;;;;5067331;28;20461;-66
2023/05/09 09:16:23;;;;;;;11.50;8.43;;;19.50;64.30;;;;;;5066298;28;20465;-66
2023/05/09 09:19:03;;;;;;;11.07;8.50;;;19.50;64.10;;;;;;5066725;28;20457;-66
2023/05/09 09:21:36;;;;;;;13.70;9.53;;;19.50;63.80;;;;;;5069341;28;20458;-66
2023/05/09 09:24:16;;;;;;;9.37;7.43;;;19.50;63.90;;;;;;5085238;28;20471;-66
2023/05/09 09:26:52;;;;;;;11.87;9.20;;;19.50;63.70;;;;;;5067880;28;20569;-66
2023/05/09 09:29:27;;;;;;;13.43;9.43;;;19.50;63.60;;;;;;5067533;28;20465;-66
2023/05/09 09:32:08;;;;;;;10.47;7.67;;;19.50;63.60;;;;;;5064606;28;20484;-66
2023/05/09 09:35:08;;;;;;;10.10;7.53;;;19.50;63.60;;;;;;5069056;28;20955;-66
2023/05/09 09:37:43;;;;;;;13.37;7.40;;;19.60;63.50;;;;;;5064524;28;20479;-66
2023/05/09 09:40:23;;;;;;;12.53;7.63;;;19.60;63.60;;;;;;5070582;28;20456;-66
2023/05/09 09:42:55;;;;;;;7.90;6.40;;;19.70;63.40;;;;;;5066702;28;20915;-66
2023/05/09 09:45:32;;;;;;;10.90;7.67;;;19.70;63.50;;;;;;5068274;28;20985;-66
2023/05/09 09:48:10;;;;;;;9.73;7.00;;;19.80;63.40;;;;;;5067841;28;20463;-66
2023/05/09 09:50:51;;;;;;;9.03;6.47;;;19.90;63.10;;;;;;5066047;28;20476;-66
2023/05/09 09:53:20;;;;;;;10.73;7.50;;;20.00;63.00;;;;;;5065264;28;20855;-66
2023/05/09 09:55:56;;;;;;;8.67;6.37;;;20.00;63.00;;;;;;5067679;28;20454;-66
2023/05/09 09:58:27;;;;;;;10.90;7.20;;;20.10;62.60;;;;;;5069664;28;20453;-66
2023/05/09 10:01:15;;;;;;;10.17;6.40;;;20.10;62.60;;;;;;5067707;28;20477;-66
2023/05/09 10:03:55;;;;;;;10.07;7.00;;;20.10;62.60;;;;;;5066988;28;20933;-66
2023/05/09 10:06:38;;;;;;;10.10;7.27;;;20.10;62.50;;;;;;5068007;28;20472;-67
2023/05/09 10:09:09;;;;;;;10.13;6.80;;;20.20;62.50;;;;;;5069005;28;20929;-66
2023/05/09 10:11:51;;;;;;;13.33;7.73;;;20.20;62.30;;;;;;5066524;28;20841;-66
2023/05/09 10:14:31;;;;;;;9.10;6.97;;;20.20;61.90;;;;;;5069994;28;20543;-66
2023/05/09 10:17:05;;;;;;;11.20;7.70;;;20.30;61.80;;;;;;5069011;28;20464;-67
2023/05/09 10:19:44;;;;;;;9.70;7.00;;;20.30;61.70;;;;;;5068688;28;20806;-66
2023/05/09 10:22:27;;;;;;;10.00;6.60;;;20.30;61.60;;;;;;5065753;28;20493;-66
2023/05/09 10:25:11;;;;;;;10.40;6.43;;;20.40;61.50;;;;;;5061709;28;20472;-66
2023/05/09 10:27:48;;;;;;;9.27;6.30;;;20.50;61.40;;;;;;5065700;28;20462;-67
2023/05/09 10:30:23;;;;;;;8.70;6.07;;;20.50;61.20;;;;;;5065965;28;20472;-67
2023/05/09 10:33:00;;;;;;;9.83;6.53;;;20.50;61.00;;;;;;5067470;28;20452;-68
2023/05/09 10:35:40;;;;;;;9.40;6.50;;;20.60;60.70;;;;;;5067724;28;20875;-66
2023/05/09 10:38:19;;;;;;;8.10;5.70;;;20.70;60.80;;;;;;5061416;28;20460;-67
2023/05/09 10:40:54;;;;;;;9.50;6.60;;;20.70;60.80;;;;;;5068652;28;21082;-66
2023/05/09 10:43:27;;;;;;;13.57;7.10;;;20.70;60.70;;;;;;5068521;28;20465;-66
2023/05/09 10:45:58;;;;;;;10.73;7.70;;;20.80;60.80;;;;;;5069084;28;20458;-66
2023/05/09 10:48:29;;;;;;;16.90;7.10;;;20.80;60.60;;;;;;5068874;28;20458;-66
2023/05/09 10:50:57;;;;;;;10.53;6.30;;;20.80;60.60;;;;;;5069161;28;20870;-66
2023/05/09 10:53:44;;;;;;;12.53;7.10;;;20.90;60.60;;;;;;5067422;28;20519;-66
2023/05/09 10:56:30;;;;;;;10.17;6.80;;;20.90;60.60;;;;;;5062590;28;20808;-66
2023/05/09 10:59:00;;;;;;;9.57;6.97;;;21.00;60.60;;;;;;5070187;28;20883;-66
2023/05/09 11:01:38;;;;;;;10.93;6.93;;;21.00;60.40;;;;;;5065411;28;20564;-66
2023/05/09 11:04:17;;;;;;;9.63;5.87;;;21.00;60.30;;;;;;5067649;28;20469;-66
2023/05/09 11:06:51;;;;;;;10.30;6.80;;;21.00;60.00;;;;;;5069242;28;20818;-66
2023/05/09 11:09:41;;;;;;;9.13;6.47;;;21.00;59.70;;;;;;5069633;28;20481;-66
2023/05/09 11:12:21;;;;;;;11.03;6.07;;;21.10;60.00;;;;;;5068213;28;20558;-66
2023/05/09 11:15:06;;;;;;;11.17;7.13;;;21.10;60.20;;;;;;5067491;28;20457;-66
2023/05/09 11:17:41;;;;;;;11.23;6.80;;;21.20;60.00;;;;;;5065765;28;21085;-66
2023/05/09 11:20:25;;;;;;;10.50;7.00;;;21.20;59.70;;;;;;5067799;28;20462;-66
2023/05/09 11:23:03;;;;;;;11.67;6.70;;;21.20;59.60;;;;;;5065134;28;20480;-66
2023/05/09 11:25:42;;;;;;;9.33;6.20;;;21.20;59.50;;;;;;5067067;28;20766;-66
2023/05/09 11:28:28;;;;;;;11.70;7.50;;;21.20;59.50;;;;;;5066981;28;20465;-66
2023/05/09 11:31:10;;;;;;;9.70;6.60;;;21.20;59.40;;;;;;5065013;28;20481;-66
2023/05/09 11:34:05;;;;;;;9.10;6.80;;;21.30;59.40;;;;;;5064001;28;20469;-66
2023/05/09 11:36:38;;;;;;;10.50;6.73;;;21.30;59.30;;;;;;5065508;28;20457;-66
2023/05/09 11:39:11;;;;;;;10.70;6.30;;;21.30;59.30;;;;;;5069641;28;21072;-66
2023/05/09 11:41:51;;;;;;;8.40;5.63;;;21.30;59.20;;;;;;5063141;28;20466;-66
2023/05/09 11:44:24;;;;;;;10.20;7.10;;;21.40;59.20;;;;;;5066485;28;20469;-66
2023/05/09 11:47:07;;;;;;;11.50;6.60;;;21.40;58.80;;;;;;5067236;28;20449;-66
2023/05/09 11:49:42;;;;;;;9.60;6.10;;;21.40;58.80;;;;;;5065140;28;20472;-66
2023/05/09 11:52:16;;;;;;;9.03;6.70;;;21.60;58.70;;;;;;5067678;28;20489;-66
2023/05/09 11:54:48;;;;;;;9.93;6.30;;;21.60;58.50;;;;;;5067502;28;21084;-66
2023/05/09 11:57:29;;;;;;;7.90;5.70;;;21.60;58.60;;;;;;5068436;28;20548;-66
2023/05/09 12:00:03;;;;;;;14.20;6.13;;;21.60;58.40;;;;;;5067659;28;20483;-66
2023/05/09 12:02:36;;;;;;;10.27;6.17;;;21.70;58.20;;;;;;5067855;28;20450;-66
2023/05/09 12:05:13;;;;;;;10.63;6.27;;;21.70;57.90;;;;;;5072240;28;20558;-65
2023/05/09 12:07:52;;;;;;;11.63;6.63;;;21.70;58.00;;;;;;5072637;28;20944;-65
2023/05/09 12:10:30;;;;;;;7.10;5.17;;;21.70;58.00;;;;;;5075238;28;20450;-65
2023/05/09 12:13:08;;;;;;;7.80;5.60;;;21.80;58.10;;;;;;5069890;28;20501;-65
2023/05/09 12:15:39;;;;;;;7.60;5.40;;;21.80;57.80;;;;;;5072353;28;20522;-65
2023/05/09 12:18:11;;;;;;;10.47;5.70;;;21.80;57.80;;;;;;5074293;28;21081;-65
2023/05/09 12:20:53;;;;;;;7.93;4.90;;;21.80;57.50;;;;;;5073680;28;20627;-65
2023/05/09 12:23:29;;;;;;;7.33;4.67;;;21.80;57.70;;;;;;5071542;28;20463;-65
2023/05/09 12:26:09;;;;;;;8.40;6.00;;;21.90;57.70;;;;;;5071777;28;20514;-65
2023/05/09 12:28:46;;;;;;;9.27;4.93;;;21.90;57.60;;;;;;5072135;28;20493;-65
2023/05/09 12:31:20;;;;;;;9.77;5.33;;;21.90;57.50;;;;;;5072227;28;20880;-65
2023/05/09 12:33:52;;;;;;;8.47;5.30;;;21.90;57.60;;;;;;5072724;28;21063;-65
2023/05/09 12:36:23;;;;;;;8.10;4.80;;;22.00;57.70;;;;;;5073389;28;20515;-65
2023/05/09 12:38:58;;;;;;;9.60;5.27;;;22.00;57.80;;;;;;5070852;28;20480;-65
2023/05/09 12:41:28;;;;;;;7.00;5.00;;;22.10;57.80;;;;;;5070979;28;20476;-65
2023/05/09 12:44:28;;;;;;;8.80;4.50;;;22.10;57.70;;;;;;5070694;28;20553;-65
2023/05/09 12:47:03;;;;;;;8.80;4.83;;;22.20;57.60;;;;;;5071925;28;20555;-65
2023/05/09 12:49:36;;;;;;;7.70;4.43;;;22.20;57.70;;;;;;5069738;28;20469;-65
2023/05/09 12:52:07;;;;;;;6.90;4.40;;;22.20;57.70;;;;;;5070054;28;20473;-65
2023/05/09 12:54:40;;;;;;;11.10;4.30;;;22.20;57.30;;;;;;5068359;28;20445;-65
2023/05/09 12:57:26;;;;;;;7.63;5.10;;;22.30;57.30;;;;;;5070882;28;20457;-65
2023/05/09 13:00:07;;;;;;;7.77;4.57;;;22.20;57.10;;;;;;5071512;28;20454;-64
2023/05/09 13:02:44;;;;;;;7.77;5.37;;;22.20;57.20;;;;;;5068301;28;20471;-65
2023/05/09 13:05:23;;;;;;;9.70;5.80;;;22.20;57.30;;;;;;5071095;28;20453;-64
2023/05/09 13:07:56;;;;;;;7.53;4.57;;;22.20;57.30;;;;;;5071008;28;20464;-65
2023/05/09 13:10:30;;;;;;;8.40;4.67;;;22.30;57.20;;;;;;5061987;28;20534;-65
2023/05/09 13:13:09;;;;;;;9.33;5.60;;;22.30;57.30;;;;;;5069860;28;20964;-64
2023/05/09 13:15:50;;;;;;;7.83;4.90;;;22.40;57.20;;;;;;5069798;28;20453;-64
2023/05/09 13:18:23;;;;;;;11.20;4.60;;;22.40;57.20;;;;;;5064014;28;20524;-64
2023/05/09 13:20:54;;;;;;;9.50;4.63;;;22.40;57.10;;;;;;5067629;28;20454;-64
2023/05/09 13:23:23;;;;;;;6.80;4.07;;;22.50;57.00;;;;;;5064295;28;20519;-64
2023/05/09 13:25:59;;;;;;;9.23;4.70;;;22.50;57.10;;;;;;5074098;28;20449;-64